sensor_id;sensor_type;location;lat;lon;timestamp;pressure;altitude;pressure_sealevel;temperature
28803;BMP280;15949;55.656;37.422;2023-05-19T00:00:09;100100.59;;;14.39
28803;BMP280;15949;55.656;37.422;2023-05-19T00:05:15;100098.72;;;14.39
28803;BMP280;15949;55.656;37.422;2023-05-19T00:10:23;100095.84;;;14.29
28803;BMP280;15949;55.656;37.422;2023-05-19T00:15:29;100100.53;;;14.20
28803;BMP280;15949;55.656;37.422;2023-05-19T00:20:35;100106.19;;;14.22
28803;BMP280;15949;55.656;37.422;2023-05-19T00:25:42;100118.00;;;14.15
28803;BMP280;15949;55.656;37.422;2023-05-19T00:30:49;100122.66;;;14.06
28803;BMP280;15949;55.656;37.422;2023-05-19T00:35:55;100132.22;;;13.99
28803;BMP280;15949;55.656;37.422;2023-05-19T00:41:02;100136.53;;;14.07
28803;BMP280;15949;55.656;37.422;2023-05-19T00:46:08;100133.97;;;13.95
28803;BMP280;15949;55.656;37.422;2023-05-19T00:51:15;100133.56;;;13.93
28803;BMP280;15949;55.656;37.422;2023-05-19T00:56:21;100135.34;;;13.89
28803;BMP280;15949;55.656;37.422;2023-05-19T01:01:27;100133.84;;;13.88
28803;BMP280;15949;55.656;37.422;2023-05-19T01:06:33;100134.41;;;13.81
28803;BMP280;15949;55.656;37.422;2023-05-19T01:11:39;100138.22;;;13.84
28803;BMP280;15949;55.656;37.422;2023-05-19T01:17:23;100142.25;;;13.81
28803;BMP280;15949;55.656;37.422;2023-05-19T01:22:44;100143.84;;;13.70
28803;BMP280;15949;55.656;37.422;2023-05-19T01:28:19;100140.69;;;13.65
28803;BMP280;15949;55.656;37.422;2023-05-19T01:33:29;100152.97;;;13.48
28803;BMP280;15949;55.656;37.422;2023-05-19T01:38:37;100159.59;;;13.30
28803;BMP280;15949;55.656;37.422;2023-05-19T01:43:43;100167.38;;;13.15
28803;BMP280;15949;55.656;37.422;2023-05-19T01:48:49;100166.38;;;12.95
28803;BMP280;15949;55.656;37.422;2023-05-19T01:53:54;100172.31;;;12.80
28803;BMP280;15949;55.656;37.422;2023-05-19T01:59:09;100173.50;;;12.70
28803;BMP280;15949;55.656;37.422;2023-05-19T02:04:31;100179.94;;;12.49
28803;BMP280;15949;55.656;37.422;2023-05-19T02:10:05;100175.41;;;12.37
28803;BMP280;15949;55.656;37.422;2023-05-19T02:15:20;100177.22;;;12.12
28803;BMP280;15949;55.656;37.422;2023-05-19T02:20:26;100190.63;;;11.70
28803;BMP280;15949;55.656;37.422;2023-05-19T02:25:32;100192.78;;;11.47
28803;BMP280;15949;55.656;37.422;2023-05-19T02:30:37;100198.13;;;11.30
28803;BMP280;15949;55.656;37.422;2023-05-19T02:35:43;100207.53;;;11.22
28803;BMP280;15949;55.656;37.422;2023-05-19T02:40:50;100203.13;;;11.14
28803;BMP280;15949;55.656;37.422;2023-05-19T02:45:56;100212.44;;;11.15
28803;BMP280;15949;55.656;37.422;2023-05-19T02:51:02;100205.41;;;11.16
28803;BMP280;15949;55.656;37.422;2023-05-19T02:56:08;100212.34;;;11.12
28803;BMP280;15949;55.656;37.422;2023-05-19T03:01:14;100214.69;;;11.05
28803;BMP280;15949;55.656;37.422;2023-05-19T03:06:20;100214.94;;;11.12
28803;BMP280;15949;55.656;37.422;2023-05-19T03:11:27;100221.88;;;11.08
28803;BMP280;15949;55.656;37.422;2023-05-19T03:16:35;100225.00;;;10.93
28803;BMP280;15949;55.656;37.422;2023-05-19T03:21:40;100237.75;;;10.85
28803;BMP280;15949;55.656;37.422;2023-05-19T03:26:46;100247.56;;;10.88
28803;BMP280;15949;55.656;37.422;2023-05-19T03:31:52;100253.41;;;10.77
28803;BMP280;15949;55.656;37.422;2023-05-19T03:36:58;100252.34;;;10.86
28803;BMP280;15949;55.656;37.422;2023-05-19T03:42:03;100257.25;;;10.79
28803;BMP280;15949;55.656;37.422;2023-05-19T03:47:09;100258.63;;;10.85
28803;BMP280;15949;55.656;37.422;2023-05-19T03:52:15;100264.13;;;10.84
28803;BMP280;15949;55.656;37.422;2023-05-19T03:57:21;100265.41;;;10.78
28803;BMP280;15949;55.656;37.422;2023-05-19T04:02:27;100273.25;;;10.69
28803;BMP280;15949;55.656;37.422;2023-05-19T04:07:32;100278.16;;;10.62
28803;BMP280;15949;55.656;37.422;2023-05-19T04:12:38;100277.97;;;10.76
28803;BMP280;15949;55.656;37.422;2023-05-19T04:17:44;100278.88;;;10.80
28803;BMP280;15949;55.656;37.422;2023-05-19T04:22:50;100275.34;;;10.84
28803;BMP280;15949;55.656;37.422;2023-05-19T04:27:55;100274.78;;;10.70
28803;BMP280;15949;55.656;37.422;2023-05-19T04:33:02;100276.94;;;10.68
28803;BMP280;15949;55.656;37.422;2023-05-19T04:38:08;100281.03;;;10.78
28803;BMP280;15949;55.656;37.422;2023-05-19T04:43:16;100281.97;;;10.82
28803;BMP280;15949;55.656;37.422;2023-05-19T04:48:23;100279.31;;;10.91
28803;BMP280;15949;55.656;37.422;2023-05-19T04:53:30;100283.25;;;11.14
28803;BMP280;15949;55.656;37.422;2023-05-19T04:58:36;100286.44;;;11.19
28803;BMP280;15949;55.656;37.422;2023-05-19T05:03:42;100283.66;;;11.24
28803;BMP280;15949;55.656;37.422;2023-05-19T05:08:48;100297.88;;;11.44
28803;BMP280;15949;55.656;37.422;2023-05-19T05:13:53;100302.41;;;11.26
28803;BMP280;15949;55.656;37.422;2023-05-19T05:19:02;100297.31;;;11.30
28803;BMP280;15949;55.656;37.422;2023-05-19T05:24:08;100290.44;;;11.46
28803;BMP280;15949;55.656;37.422;2023-05-19T05:29:14;100310.22;;;11.26
28803;BMP280;15949;55.656;37.422;2023-05-19T05:34:20;100305.09;;;11.01
28803;BMP280;15949;55.656;37.422;2023-05-19T05:39:26;100308.47;;;10.93
28803;BMP280;15949;55.656;37.422;2023-05-19T05:44:32;100320.59;;;10.80
28803;BMP280;15949;55.656;37.422;2023-05-19T05:49:40;100315.53;;;10.83
28803;BMP280;15949;55.656;37.422;2023-05-19T05:54:46;100313.28;;;10.73
28803;BMP280;15949;55.656;37.422;2023-05-19T05:59:52;100323.22;;;10.71
28803;BMP280;15949;55.656;37.422;2023-05-19T06:04:57;100327.38;;;10.72
28803;BMP280;15949;55.656;37.422;2023-05-19T06:10:04;100327.97;;;10.78
28803;BMP280;15949;55.656;37.422;2023-05-19T06:15:09;100324.72;;;10.89
28803;BMP280;15949;55.656;37.422;2023-05-19T06:20:16;100323.47;;;11.04
28803;BMP280;15949;55.656;37.422;2023-05-19T06:25:22;100318.88;;;11.10
28803;BMP280;15949;55.656;37.422;2023-05-19T06:30:29;100326.97;;;11.17
28803;BMP280;15949;55.656;37.422;2023-05-19T06:35:34;100324.94;;;11.31
28803;BMP280;15949;55.656;37.422;2023-05-19T06:40:40;100331.28;;;11.59
28803;BMP280;15949;55.656;37.422;2023-05-19T06:45:46;100327.25;;;11.91
28803;BMP280;15949;55.656;37.422;2023-05-19T06:50:51;100334.34;;;11.90
28803;BMP280;15949;55.656;37.422;2023-05-19T06:55:57;100333.50;;;11.98
28803;BMP280;15949;55.656;37.422;2023-05-19T07:01:03;100339.31;;;12.25
28803;BMP280;15949;55.656;37.422;2023-05-19T07:06:08;100334.81;;;12.46
28803;BMP280;15949;55.656;37.422;2023-05-19T07:11:14;100337.28;;;12.63
28803;BMP280;15949;55.656;37.422;2023-05-19T07:16:20;100342.00;;;12.69
28803;BMP280;15949;55.656;37.422;2023-05-19T07:21:25;100338.66;;;12.81
28803;BMP280;15949;55.656;37.422;2023-05-19T07:26:31;100344.47;;;12.99
28803;BMP280;15949;55.656;37.422;2023-05-19T07:31:37;100342.00;;;13.26
28803;BMP280;15949;55.656;37.422;2023-05-19T07:36:43;100342.88;;;13.42
28803;BMP280;15949;55.656;37.422;2023-05-19T07:41:48;100345.72;;;13.62
28803;BMP280;15949;55.656;37.422;2023-05-19T07:46:58;100340.88;;;13.76
28803;BMP280;15949;55.656;37.422;2023-05-19T07:52:04;100339.59;;;13.82
28803;BMP280;15949;55.656;37.422;2023-05-19T07:57:10;100339.63;;;14.09
28803;BMP280;15949;55.656;37.422;2023-05-19T08:02:15;100332.78;;;14.33
28803;BMP280;15949;55.656;37.422;2023-05-19T08:07:21;100344.06;;;14.49
28803;BMP280;15949;55.656;37.422;2023-05-19T08:12:27;100334.72;;;14.08
28803;BMP280;15949;55.656;37.422;2023-05-19T08:17:32;100341.72;;;14.32
28803;BMP280;15949;55.656;37.422;2023-05-19T08:22:38;100347.84;;;14.63
28803;BMP280;15949;55.656;37.422;2023-05-19T08:27:44;100337.81;;;14.69
28803;BMP280;15949;55.656;37.422;2023-05-19T08:32:50;100343.19;;;14.88
28803;BMP280;15949;55.656;37.422;2023-05-19T08:37:56;100338.75;;;15.23
28803;BMP280;15949;55.656;37.422;2023-05-19T08:43:01;100346.63;;;15.39
28803;BMP280;15949;55.656;37.422;2023-05-19T08:48:08;100344.47;;;15.79
28803;BMP280;15949;55.656;37.422;2023-05-19T08:53:19;100342.81;;;16.51
28803;BMP280;15949;55.656;37.422;2023-05-19T08:58:26;100333.59;;;16.61
28803;BMP280;15949;55.656;37.422;2023-05-19T09:03:33;100341.41;;;17.02
28803;BMP280;15949;55.656;37.422;2023-05-19T09:08:43;100348.09;;;17.23
28803;BMP280;15949;55.656;37.422;2023-05-19T09:13:49;100344.66;;;17.19
28803;BMP280;15949;55.656;37.422;2023-05-19T09:18:56;100335.69;;;17.23
28803;BMP280;15949;55.656;37.422;2023-05-19T09:24:05;100339.63;;;17.36
28803;BMP280;15949;55.656;37.422;2023-05-19T09:29:14;100339.38;;;17.19
28803;BMP280;15949;55.656;37.422;2023-05-19T09:34:20;100332.50;;;17.70
28803;BMP280;15949;55.656;37.422;2023-05-19T09:39:28;100331.91;;;17.84
28803;BMP280;15949;55.656;37.422;2023-05-19T09:44:34;100329.56;;;17.75
28803;BMP280;15949;55.656;37.422;2023-05-19T09:49:45;100328.38;;;18.06
28803;BMP280;15949;55.656;37.422;2023-05-19T09:54:51;100320.13;;;18.11
28803;BMP280;15949;55.656;37.422;2023-05-19T09:59:59;100315.06;;;18.32
28803;BMP280;15949;55.656;37.422;2023-05-19T10:05:05;100305.59;;;18.27
28803;BMP280;15949;55.656;37.422;2023-05-19T10:10:12;100311.38;;;18.43
28803;BMP280;15949;55.656;37.422;2023-05-19T10:15:20;100318.59;;;18.10
28803;BMP280;15949;55.656;37.422;2023-05-19T10:20:26;100300.34;;;18.31
28803;BMP280;15949;55.656;37.422;2023-05-19T10:25:33;100312.09;;;18.37
28803;BMP280;15949;55.656;37.422;2023-05-19T10:30:45;100302.59;;;18.29
28803;BMP280;15949;55.656;37.422;2023-05-19T10:36:53;100309.22;;;18.52
28803;BMP280;15949;55.656;37.422;2023-05-19T10:46:51;100302.63;;;18.32
28803;BMP280;15949;55.656;37.422;2023-05-19T10:51:57;100314.25;;;18.28
28803;BMP280;15949;55.656;37.422;2023-05-19T10:57:02;100320.22;;;18.18
28803;BMP280;15949;55.656;37.422;2023-05-19T11:02:08;100310.72;;;17.76
28803;BMP280;15949;55.656;37.422;2023-05-19T11:07:16;100295.66;;;17.73
28803;BMP280;15949;55.656;37.422;2023-05-19T11:12:22;100307.59;;;17.67
28803;BMP280;15949;55.656;37.422;2023-05-19T11:17:28;100310.63;;;17.36
28803;BMP280;15949;55.656;37.422;2023-05-19T11:22:34;100299.00;;;17.37
28803;BMP280;15949;55.656;37.422;2023-05-19T11:27:44;100298.28;;;17.44
28803;BMP280;15949;55.656;37.422;2023-05-19T11:32:52;100299.94;;;17.55
28803;BMP280;15949;55.656;37.422;2023-05-19T11:37:58;100301.63;;;17.70
28803;BMP280;15949;55.656;37.422;2023-05-19T11:43:04;100297.75;;;17.98
28803;BMP280;15949;55.656;37.422;2023-05-19T11:48:11;100301.66;;;18.11
28803;BMP280;15949;55.656;37.422;2023-05-19T11:53:17;100305.41;;;18.10
28803;BMP280;15949;55.656;37.422;2023-05-19T11:58:24;100314.34;;;18.35
28803;BMP280;15949;55.656;37.422;2023-05-19T12:03:32;100302.50;;;18.66
28803;BMP280;15949;55.656;37.422;2023-05-19T12:08:37;100308.44;;;18.52
28803;BMP280;15949;55.656;37.422;2023-05-19T12:13:43;100301.56;;;18.40
28803;BMP280;15949;55.656;37.422;2023-05-19T12:18:49;100309.53;;;18.47
28803;BMP280;15949;55.656;37.422;2023-05-19T12:23:54;100311.88;;;18.12
28803;BMP280;15949;55.656;37.422;2023-05-19T12:29:00;100319.66;;;18.02
28803;BMP280;15949;55.656;37.422;2023-05-19T12:34:06;100316.13;;;18.24
28803;BMP280;15949;55.656;37.422;2023-05-19T12:39:13;100327.03;;;18.22
28803;BMP280;15949;55.656;37.422;2023-05-19T12:44:18;100312.66;;;18.16
28803;BMP280;15949;55.656;37.422;2023-05-19T12:49:24;100326.31;;;18.25
28803;BMP280;15949;55.656;37.422;2023-05-19T12:54:32;100323.63;;;18.22
28803;BMP280;15949;55.656;37.422;2023-05-19T12:59:41;100312.75;;;18.27
28803;BMP280;15949;55.656;37.422;2023-05-19T13:04:47;100310.97;;;18.01
28803;BMP280;15949;55.656;37.422;2023-05-19T13:09:52;100316.81;;;18.17
28803;BMP280;15949;55.656;37.422;2023-05-19T13:14:58;100311.31;;;18.33
28803;BMP280;15949;55.656;37.422;2023-05-19T13:20:05;100312.63;;;18.13
28803;BMP280;15949;55.656;37.422;2023-05-19T13:25:11;100318.25;;;18.08
28803;BMP280;15949;55.656;37.422;2023-05-19T13:30:17;100322.16;;;17.88
28803;BMP280;15949;55.656;37.422;2023-05-19T13:35:23;100327.22;;;17.66
28803;BMP280;15949;55.656;37.422;2023-05-19T13:40:29;100329.84;;;18.00
28803;BMP280;15949;55.656;37.422;2023-05-19T13:45:37;100328.28;;;17.95
28803;BMP280;15949;55.656;37.422;2023-05-19T13:50:43;100323.25;;;18.20
28803;BMP280;15949;55.656;37.422;2023-05-19T13:55:48;100321.22;;;18.46
28803;BMP280;15949;55.656;37.422;2023-05-19T14:00:57;100319.22;;;18.33
28803;BMP280;15949;55.656;37.422;2023-05-19T14:06:04;100330.22;;;18.42
28803;BMP280;15949;55.656;37.422;2023-05-19T14:11:16;100328.16;;;18.21
28803;BMP280;15949;55.656;37.422;2023-05-19T14:16:24;100324.81;;;18.28
28803;BMP280;15949;55.656;37.422;2023-05-19T14:21:31;100329.91;;;18.07
28803;BMP280;15949;55.656;37.422;2023-05-19T14:26:37;100329.69;;;17.86
28803;BMP280;15949;55.656;37.422;2023-05-19T14:31:42;100319.13;;;17.86
28803;BMP280;15949;55.656;37.422;2023-05-19T14:36:48;100327.34;;;17.81
28803;BMP280;15949;55.656;37.422;2023-05-19T14:41:54;100319.38;;;17.73
28803;BMP280;15949;55.656;37.422;2023-05-19T14:47:00;100319.94;;;17.90
28803;BMP280;15949;55.656;37.422;2023-05-19T14:52:06;100306.69;;;18.77
28803;BMP280;15949;55.656;37.422;2023-05-19T14:57:12;100304.19;;;18.95
28803;BMP280;15949;55.656;37.422;2023-05-19T15:02:17;100302.09;;;19.25
28803;BMP280;15949;55.656;37.422;2023-05-19T15:07:23;100305.09;;;19.16
28803;BMP280;15949;55.656;37.422;2023-05-19T15:12:29;100296.00;;;19.17
28803;BMP280;15949;55.656;37.422;2023-05-19T15:17:34;100301.91;;;18.35
28803;BMP280;15949;55.656;37.422;2023-05-19T15:22:40;100310.06;;;17.50
28803;BMP280;15949;55.656;37.422;2023-05-19T15:27:46;100307.97;;;17.33
28803;BMP280;15949;55.656;37.422;2023-05-19T15:32:52;100314.00;;;18.40
28803;BMP280;15949;55.656;37.422;2023-05-19T15:37:57;100308.44;;;18.08
28803;BMP280;15949;55.656;37.422;2023-05-19T15:43:08;100312.66;;;18.16
28803;BMP280;15949;55.656;37.422;2023-05-19T15:48:14;100313.63;;;18.89
28803;BMP280;15949;55.656;37.422;2023-05-19T15:53:20;100315.97;;;19.04
28803;BMP280;15949;55.656;37.422;2023-05-19T15:58:26;100324.03;;;18.24
28803;BMP280;15949;55.656;37.422;2023-05-19T16:03:31;100326.44;;;17.66
28803;BMP280;15949;55.656;37.422;2023-05-19T16:08:37;100319.66;;;17.09
28803;BMP280;15949;55.656;37.422;2023-05-19T16:13:43;100328.03;;;16.66
28803;BMP280;15949;55.656;37.422;2023-05-19T16:18:48;100328.94;;;16.32
28803;BMP280;15949;55.656;37.422;2023-05-19T16:23:54;100322.31;;;15.99
28803;BMP280;15949;55.656;37.422;2023-05-19T16:29:00;100324.16;;;15.76
28803;BMP280;15949;55.656;37.422;2023-05-19T16:34:06;100330.19;;;15.61
28803;BMP280;15949;55.656;37.422;2023-05-19T16:39:11;100335.28;;;15.35
28803;BMP280;15949;55.656;37.422;2023-05-19T16:44:18;100337.41;;;15.14
28803;BMP280;15949;55.656;37.422;2023-05-19T16:49:23;100342.00;;;15.01
28803;BMP280;15949;55.656;37.422;2023-05-19T16:54:29;100339.88;;;14.91
28803;BMP280;15949;55.656;37.422;2023-05-19T16:59:35;100351.78;;;14.57
28803;BMP280;15949;55.656;37.422;2023-05-19T17:04:40;100350.22;;;14.41
28803;BMP280;15949;55.656;37.422;2023-05-19T17:09:46;100359.38;;;14.19
28803;BMP280;15949;55.656;37.422;2023-05-19T17:14:52;100364.00;;;13.98
28803;BMP280;15949;55.656;37.422;2023-05-19T17:19:58;100368.50;;;13.85
28803;BMP280;15949;55.656;37.422;2023-05-19T17:25:04;100381.31;;;13.63
28803;BMP280;15949;55.656;37.422;2023-05-19T17:30:11;100385.31;;;13.48
28803;BMP280;15949;55.656;37.422;2023-05-19T17:35:17;100392.00;;;13.33
28803;BMP280;15949;55.656;37.422;2023-05-19T17:40:24;100399.41;;;13.19
28803;BMP280;15949;55.656;37.422;2023-05-19T17:45:30;100404.47;;;13.04
28803;BMP280;15949;55.656;37.422;2023-05-19T17:50:36;100413.94;;;12.96
28803;BMP280;15949;55.656;37.422;2023-05-19T17:55:49;100420.66;;;12.85
28803;BMP280;15949;55.656;37.422;2023-05-19T18:00:55;100418.47;;;12.75
28803;BMP280;15949;55.656;37.422;2023-05-19T18:06:01;100406.66;;;12.69
28803;BMP280;15949;55.656;37.422;2023-05-19T18:11:07;100423.16;;;12.61
28803;BMP280;15949;55.656;37.422;2023-05-19T18:16:14;100424.63;;;12.50
28803;BMP280;15949;55.656;37.422;2023-05-19T18:21:20;100427.03;;;12.43
28803;BMP280;15949;55.656;37.422;2023-05-19T18:26:25;100442.94;;;12.29
28803;BMP280;15949;55.656;37.422;2023-05-19T18:31:31;100444.06;;;12.20
28803;BMP280;15949;55.656;37.422;2023-05-19T18:36:37;100442.94;;;12.08
28803;BMP280;15949;55.656;37.422;2023-05-19T18:41:42;100438.03;;;11.98
28803;BMP280;15949;55.656;37.422;2023-05-19T18:46:48;100445.94;;;11.90
28803;BMP280;15949;55.656;37.422;2023-05-19T18:51:55;100445.63;;;11.83
28803;BMP280;15949;55.656;37.422;2023-05-19T18:57:01;100441.84;;;11.72
28803;BMP280;15949;55.656;37.422;2023-05-19T19:02:08;100440.34;;;11.62
28803;BMP280;15949;55.656;37.422;2023-05-19T19:07:14;100441.44;;;11.53
28803;BMP280;15949;55.656;37.422;2023-05-19T19:12:20;100446.53;;;11.49
28803;BMP280;15949;55.656;37.422;2023-05-19T19:17:25;100449.72;;;11.46
28803;BMP280;15949;55.656;37.422;2023-05-19T19:22:31;100464.97;;;11.35
28803;BMP280;15949;55.656;37.422;2023-05-19T19:27:37;100463.28;;;11.22
28803;BMP280;15949;55.656;37.422;2023-05-19T19:32:43;100475.91;;;11.20
28803;BMP280;15949;55.656;37.422;2023-05-19T19:37:49;100474.81;;;11.13
28803;BMP280;15949;55.656;37.422;2023-05-19T19:42:55;100467.00;;;11.04
28803;BMP280;15949;55.656;37.422;2023-05-19T19:48:01;100468.97;;;10.99
28803;BMP280;15949;55.656;37.422;2023-05-19T19:53:07;100470.38;;;10.96
28803;BMP280;15949;55.656;37.422;2023-05-19T19:58:13;100472.19;;;10.96
28803;BMP280;15949;55.656;37.422;2023-05-19T20:03:18;100480.63;;;10.84
28803;BMP280;15949;55.656;37.422;2023-05-19T20:08:25;100485.06;;;10.75
28803;BMP280;15949;55.656;37.422;2023-05-19T20:13:30;100490.59;;;10.73
28803;BMP280;15949;55.656;37.422;2023-05-19T20:18:36;100492.72;;;10.71
28803;BMP280;15949;55.656;37.422;2023-05-19T20:23:42;100495.63;;;10.61
28803;BMP280;15949;55.656;37.422;2023-05-19T20:28:48;100500.03;;;10.52
28803;BMP280;15949;55.656;37.422;2023-05-19T20:33:54;100506.81;;;10.53
28803;BMP280;15949;55.656;37.422;2023-05-19T20:38:59;100498.53;;;10.51
28803;BMP280;15949;55.656;37.422;2023-05-19T20:44:05;100499.72;;;10.45
28803;BMP280;15949;55.656;37.422;2023-05-19T20:49:12;100509.38;;;10.36
28803;BMP280;15949;55.656;37.422;2023-05-19T20:54:18;100513.63;;;10.32
28803;BMP280;15949;55.656;37.422;2023-05-19T20:59:24;100518.50;;;10.25
28803;BMP280;15949;55.656;37.422;2023-05-19T21:04:30;100518.97;;;10.27
28803;BMP280;15949;55.656;37.422;2023-05-19T21:09:37;100530.63;;;10.30
28803;BMP280;15949;55.656;37.422;2023-05-19T21:14:42;100522.69;;;10.35
28803;BMP280;15949;55.656;37.422;2023-05-19T21:19:48;100528.41;;;10.45
28803;BMP280;15949;55.656;37.422;2023-05-19T21:24:54;100526.13;;;10.52
28803;BMP280;15949;55.656;37.422;2023-05-19T21:30:00;100523.19;;;10.45
28803;BMP280;15949;55.656;37.422;2023-05-19T21:35:06;100518.09;;;10.40
28803;BMP280;15949;55.656;37.422;2023-05-19T21:40:11;100523.81;;;10.42
28803;BMP280;15949;55.656;37.422;2023-05-19T21:45:17;100521.53;;;10.49
28803;BMP280;15949;55.656;37.422;2023-05-19T21:50:23;100517.97;;;10.45
28803;BMP280;15949;55.656;37.422;2023-05-19T21:55:28;100525.00;;;10.45
28803;BMP280;15949;55.656;37.422;2023-05-19T22:00:34;100522.88;;;10.38
28803;BMP280;15949;55.656;37.422;2023-05-19T22:05:41;100514.81;;;10.26
28803;BMP280;15949;55.656;37.422;2023-05-19T22:10:50;100520.94;;;10.21
28803;BMP280;15949;55.656;37.422;2023-05-19T22:15:56;100518.94;;;10.18
28803;BMP280;15949;55.656;37.422;2023-05-19T22:21:01;100523.94;;;10.06
28803;BMP280;15949;55.656;37.422;2023-05-19T22:26:07;100526.09;;;10.04
28803;BMP280;15949;55.656;37.422;2023-05-19T22:31:13;100524.25;;;10.05
28803;BMP280;15949;55.656;37.422;2023-05-19T22:36:18;100524.06;;;10.01
28803;BMP280;15949;55.656;37.422;2023-05-19T22:41:24;100519.28;;;9.95
28803;BMP280;15949;55.656;37.422;2023-05-19T22:46:30;100519.88;;;9.92
28803;BMP280;15949;55.656;37.422;2023-05-19T22:51:36;100516.53;;;9.91
28803;BMP280;15949;55.656;37.422;2023-05-19T22:56:42;100521.41;;;9.93
28803;BMP280;15949;55.656;37.422;2023-05-19T23:01:49;100513.75;;;9.88
28803;BMP280;15949;55.656;37.422;2023-05-19T23:06:54;100510.06;;;9.89
28803;BMP280;15949;55.656;37.422;2023-05-19T23:12:00;100505.28;;;9.82
28803;BMP280;15949;55.656;37.422;2023-05-19T23:17:06;100515.41;;;9.84
28803;BMP280;15949;55.656;37.422;2023-05-19T23:22:11;100511.72;;;9.85
28803;BMP280;15949;55.656;37.422;2023-05-19T23:27:17;100510.44;;;9.74
28803;BMP280;15949;55.656;37.422;2023-05-19T23:32:23;100509.22;;;9.57
28803;BMP280;15949;55.656;37.422;2023-05-19T23:37:28;100510.00;;;9.58
28803;BMP280;15949;55.656;37.422;2023-05-19T23:42:35;100502.03;;;9.54
28803;BMP280;15949;55.656;37.422;2023-05-19T23:47:41;100498.19;;;9.52
28803;BMP280;15949;55.656;37.422;2023-05-19T23:52:47;100496.47;;;9.47
28803;BMP280;15949;55.656;37.422;2023-05-19T23:57:53;100481.63;;;9.48
